Putney, VT

7:33 AM EDT on October 01, 2016 (GMT -0400)
Green Mountain Orchard | | Change Station

Elev 715 ft 42.99 °N, 72.54 °W | Updated 22 seconds ago

Overcast
Overcast
45.2 °F
Feels Like 45 °F
N
1.0
Wind Variable Wind from WNW
Gusts 6.0 mph

Today
High -- | Low -- °F
--% Chance of Precip.
Yesterday
High -- | Low -- °F
Precip. -- in
Pressure 30.43 in
Visibility 10.0 miles
Clouds Overcast 1200 ft
Windchill 45 °F
Dew Point Not available.
Humidity Not available.
Rainfall 0.12 in
Snow Depth Not available.
6:48 AM 6:30 PM
New Moon, 0% visible
METAR KEEN 011056Z AUTO 02006KT 10SM OVC012 08/07 A3036 RMK AO2 SLP303 T00830072
Pressure 30.43 in
Visibility 10.0 miles
Clouds Overcast 1200 ft
Windchill 45 °F
Dew Point Not available.
Humidity Not available.
Rainfall 0.12 in
Snow Depth Not available.
6:48 AM 6:30 PM
New Moon, 0% visible
METAR KEEN 011056Z AUTO 02006KT 10SM OVC012 08/07 A3036 RMK AO2 SLP303 T00830072

10-Day Weather Forecast

Almanac

Astronomy

Oct. 01, 2016 Rise Set
Actual Time
Civil Twilight
Nautical Twilight
Astronomical Twilight
Moon
Length of Visible Light
Length of Day
Tomorrow will be .
, % of the Moon is Illuminated

Today's Extremes

State Highs State Lows

Community

WunderPhotos

Upload Photos

1,942,905 photos uploaded!

WunderBlog® & News

Nearby

Air Quality

  Air Quality AQ Index Pollutant
Not available.

Snow Depth

Station Depth Elevation

Earthquake Activity

City Distance Mag. Time & Date
Minimum magnitude displayed is 2.5.

Coastal Water Temperatures

Place Temperature

Stations

Nearby Weather Stations

Station Location Temp. Windchill Dew Point Humidity Wind Precip. Elev Updated Type
                   

Watches & Warnings

There are currently no watches in effect.